sensor_id;sensor_type;location;lat;lon;timestamp;P1;durP1;ratioP1;P2;durP2;ratioP2
47513;SDS011;33951;51.988;5.910;2022-07-05T05:45:24;12.20;;;9.77;;
47513;SDS011;33951;51.988;5.910;2022-07-05T07:15:31;15.15;;;10.43;;
47513;SDS011;33951;51.988;5.910;2022-07-05T07:38:54;11.68;;;9.65;;
47513;SDS011;33951;51.988;5.910;2022-07-05T07:48:28;10.15;;;6.28;;
47513;SDS011;33951;51.988;5.910;2022-07-05T07:51:05;9.45;;;7.85;;
47513;SDS011;33951;51.988;5.910;2022-07-05T07:53:34;10.40;;;7.95;;
47513;SDS011;33951;51.988;5.910;2022-07-05T07:56:02;10.05;;;7.93;;
47513;SDS011;33951;51.988;5.910;2022-07-05T07:58:55;9.90;;;7.50;;
47513;SDS011;33951;51.988;5.910;2022-07-05T08:01:23;10.18;;;8.35;;
47513;SDS011;33951;51.988;5.910;2022-07-05T08:04:09;12.00;;;7.15;;
47513;SDS011;33951;51.988;5.910;2022-07-05T08:31:27;7.18;;;6.25;;
47513;SDS011;33951;51.988;5.910;2022-07-05T11:24:33;7.00;;;3.80;;
47513;SDS011;33951;51.988;5.910;2022-07-05T12:52:12;2.72;;;1.17;;
47513;SDS011;33951;51.988;5.910;2022-07-05T13:01:22;6.13;;;1.52;;
47513;SDS011;33951;51.988;5.910;2022-07-05T13:36:06;4.72;;;1.40;;
47513;SDS011;33951;51.988;5.910;2022-07-05T14:05:58;1.73;;;1.17;;
47513;SDS011;33951;51.988;5.910;2022-07-05T14:08:36;4.05;;;1.27;;
47513;SDS011;33951;51.988;5.910;2022-07-05T14:11:02;2.78;;;1.10;;
47513;SDS011;33951;51.988;5.910;2022-07-05T14:13:28;3.25;;;1.30;;
47513;SDS011;33951;51.988;5.910;2022-07-05T14:15:54;2.67;;;1.20;;
47513;SDS011;33951;51.988;5.910;2022-07-05T14:27:51;3.78;;;1.38;;
47513;SDS011;33951;51.988;5.910;2022-07-05T14:51:30;1.63;;;1.10;;
47513;SDS011;33951;51.988;5.910;2022-07-05T15:01:11;2.63;;;0.90;;
47513;SDS011;33951;51.988;5.910;2022-07-05T15:17:27;6.80;;;1.10;;
47513;SDS011;33951;51.988;5.910;2022-07-05T15:23:06;1.88;;;1.33;;
47513;SDS011;33951;51.988;5.910;2022-07-05T15:25:35;3.70;;;1.20;;
47513;SDS011;33951;51.988;5.910;2022-07-05T15:28:06;4.32;;;1.60;;
47513;SDS011;33951;51.988;5.910;2022-07-05T15:30:44;4.32;;;1.20;;
47513;SDS011;33951;51.988;5.910;2022-07-05T15:33:25;2.58;;;1.38;;
47513;SDS011;33951;51.988;5.910;2022-07-05T15:35:55;3.75;;;1.20;;
47513;SDS011;33951;51.988;5.910;2022-07-05T15:38:29;4.22;;;1.35;;
47513;SDS011;33951;51.988;5.910;2022-07-05T15:40:58;3.47;;;1.50;;
47513;SDS011;33951;51.988;5.910;2022-07-05T15:43:51;1.50;;;0.95;;
47513;SDS011;33951;51.988;5.910;2022-07-05T15:46:50;3.17;;;1.10;;
47513;SDS011;33951;51.988;5.910;2022-07-05T15:49:32;4.07;;;1.13;;
47513;SDS011;33951;51.988;5.910;2022-07-05T15:52:14;1.60;;;1.13;;
47513;SDS011;33951;51.988;5.910;2022-07-05T15:55:03;4.65;;;1.33;;
47513;SDS011;33951;51.988;5.910;2022-07-05T15:57:50;1.23;;;0.95;;
47513;SDS011;33951;51.988;5.910;2022-07-05T16:00:26;2.05;;;1.17;;
47513;SDS011;33951;51.988;5.910;2022-07-05T16:06:14;3.42;;;1.13;;
47513;SDS011;33951;51.988;5.910;2022-07-05T16:09:15;2.13;;;1.23;;
47513;SDS011;33951;51.988;5.910;2022-07-05T16:19:23;4.05;;;1.10;;
47513;SDS011;33951;51.988;5.910;2022-07-05T16:22:03;2.30;;;0.80;;
47513;SDS011;33951;51.988;5.910;2022-07-05T16:28:24;2.65;;;1.20;;
47513;SDS011;33951;51.988;5.910;2022-07-05T16:34:11;3.47;;;1.10;;
47513;SDS011;33951;51.988;5.910;2022-07-05T16:40:12;2.10;;;0.93;;
47513;SDS011;33951;51.988;5.910;2022-07-05T16:43:34;4.68;;;1.45;;
47513;SDS011;33951;51.988;5.910;2022-07-05T16:46:18;5.03;;;1.50;;
47513;SDS011;33951;51.988;5.910;2022-07-05T16:49:24;4.40;;;1.48;;
47513;SDS011;33951;51.988;5.910;2022-07-05T16:52:27;7.75;;;1.30;;
47513;SDS011;33951;51.988;5.910;2022-07-05T17:01:15;4.05;;;1.73;;
47513;SDS011;33951;51.988;5.910;2022-07-05T17:04:04;5.22;;;1.45;;
47513;SDS011;33951;51.988;5.910;2022-07-05T17:07:03;3.25;;;2.38;;
47513;SDS011;33951;51.988;5.910;2022-07-05T17:09:52;3.53;;;1.60;;
47513;SDS011;33951;51.988;5.910;2022-07-05T17:12:36;6.77;;;2.10;;
47513;SDS011;33951;51.988;5.910;2022-07-05T17:15:05;7.28;;;2.20;;
47513;SDS011;33951;51.988;5.910;2022-07-05T17:17:45;3.45;;;1.83;;
47513;SDS011;33951;51.988;5.910;2022-07-05T17:20:30;3.80;;;1.40;;
47513;SDS011;33951;51.988;5.910;2022-07-05T17:23:21;5.18;;;1.70;;
47513;SDS011;33951;51.988;5.910;2022-07-05T17:26:20;2.33;;;1.60;;
47513;SDS011;33951;51.988;5.910;2022-07-05T17:32:29;4.88;;;1.77;;
47513;SDS011;33951;51.988;5.910;2022-07-05T17:35:12;3.13;;;1.65;;
47513;SDS011;33951;51.988;5.910;2022-07-05T17:38:01;2.28;;;1.35;;
47513;SDS011;33951;51.988;5.910;2022-07-05T17:40:53;2.75;;;1.48;;
47513;SDS011;33951;51.988;5.910;2022-07-05T17:44:12;7.10;;;1.58;;
47513;SDS011;33951;51.988;5.910;2022-07-05T17:46:47;4.07;;;1.48;;
47513;SDS011;33951;51.988;5.910;2022-07-05T17:49:18;4.15;;;1.52;;
47513;SDS011;33951;51.988;5.910;2022-07-05T17:51:51;5.60;;;1.80;;
47513;SDS011;33951;51.988;5.910;2022-07-05T17:54:36;6.03;;;1.77;;
47513;SDS011;33951;51.988;5.910;2022-07-05T17:57:25;6.35;;;1.70;;
47513;SDS011;33951;51.988;5.910;2022-07-05T18:00:48;3.50;;;1.55;;
47513;SDS011;33951;51.988;5.910;2022-07-05T18:09:10;3.22;;;1.45;;
47513;SDS011;33951;51.988;5.910;2022-07-05T18:11:41;5.35;;;1.70;;
47513;SDS011;33951;51.988;5.910;2022-07-05T18:17:14;5.07;;;1.92;;
47513;SDS011;33951;51.988;5.910;2022-07-05T18:20:06;3.47;;;1.35;;
47513;SDS011;33951;51.988;5.910;2022-07-05T18:22:40;6.72;;;1.92;;
47513;SDS011;33951;51.988;5.910;2022-07-05T18:25:19;4.70;;;1.77;;
47513;SDS011;33951;51.988;5.910;2022-07-05T18:27:47;3.07;;;1.30;;
47513;SDS011;33951;51.988;5.910;2022-07-05T18:30:26;3.22;;;1.65;;
47513;SDS011;33951;51.988;5.910;2022-07-05T18:33:22;5.03;;;1.23;;
47513;SDS011;33951;51.988;5.910;2022-07-05T18:36:03;2.22;;;1.35;;
47513;SDS011;33951;51.988;5.910;2022-07-05T18:38:29;3.65;;;1.40;;
47513;SDS011;33951;51.988;5.910;2022-07-05T18:41:06;4.93;;;1.98;;
47513;SDS011;33951;51.988;5.910;2022-07-05T18:43:51;4.32;;;1.77;;
47513;SDS011;33951;51.988;5.910;2022-07-05T18:46:37;4.53;;;1.88;;
47513;SDS011;33951;51.988;5.910;2022-07-05T18:49:26;5.00;;;1.50;;
47513;SDS011;33951;51.988;5.910;2022-07-05T18:52:13;2.28;;;1.55;;
47513;SDS011;33951;51.988;5.910;2022-07-05T18:55:05;4.07;;;1.45;;
47513;SDS011;33951;51.988;5.910;2022-07-05T18:57:53;2.92;;;1.10;;
47513;SDS011;33951;51.988;5.910;2022-07-05T19:00:37;2.75;;;1.52;;
47513;SDS011;33951;51.988;5.910;2022-07-05T19:03:30;5.28;;;1.67;;
47513;SDS011;33951;51.988;5.910;2022-07-05T19:06:11;2.58;;;1.20;;
47513;SDS011;33951;51.988;5.910;2022-07-05T19:09:06;4.97;;;1.85;;
47513;SDS011;33951;51.988;5.910;2022-07-05T19:11:51;3.70;;;1.60;;
47513;SDS011;33951;51.988;5.910;2022-07-05T19:14:38;4.03;;;1.35;;
47513;SDS011;33951;51.988;5.910;2022-07-05T19:17:21;4.03;;;1.65;;
47513;SDS011;33951;51.988;5.910;2022-07-05T19:19:47;2.65;;;1.15;;
47513;SDS011;33951;51.988;5.910;2022-07-05T19:22:53;5.72;;;1.67;;
47513;SDS011;33951;51.988;5.910;2022-07-05T19:26:16;5.47;;;1.40;;
47513;SDS011;33951;51.988;5.910;2022-07-05T19:28:57;2.15;;;1.60;;
47513;SDS011;33951;51.988;5.910;2022-07-05T19:31:46;5.95;;;1.50;;
47513;SDS011;33951;51.988;5.910;2022-07-05T19:34:47;5.32;;;1.73;;
47513;SDS011;33951;51.988;5.910;2022-07-05T19:37:39;3.58;;;1.25;;
47513;SDS011;33951;51.988;5.910;2022-07-05T19:43:43;5.20;;;1.65;;
47513;SDS011;33951;51.988;5.910;2022-07-05T19:52:49;6.10;;;1.80;;
47513;SDS011;33951;51.988;5.910;2022-07-05T19:56:05;4.47;;;1.75;;
47513;SDS011;33951;51.988;5.910;2022-07-05T19:59:21;4.60;;;1.90;;
47513;SDS011;33951;51.988;5.910;2022-07-05T20:01:54;4.30;;;2.17;;
47513;SDS011;33951;51.988;5.910;2022-07-05T22:00:03;3.05;;;1.77;;
47513;SDS011;33951;51.988;5.910;2022-07-05T22:15:22;3.50;;;1.30;;
